Time;durP1;ratioP1;P1;durP2;ratioP2;P2;SDS_P1;SDS_P2;PMS_P1;PMS_P2;Temp;Humidity;BMP_temperature;BMP_pressure;BME280_temperature;BME280_humidity;BME280_pressure;Samples;Min_cycle;Max_cycle;Signal;HPM_P1;HPM_P2
2021/01/12 00:00:44;;;;;;;5.87;4.80;;;2.20;96.20;;;0.39;100.00;99966.28;5024611;27;99955;-62
2021/01/12 00:03:11;;;;;;;7.17;5.17;;;2.30;96.00;;;0.42;100.00;99948.50;5024349;27;100070;-62
2021/01/12 00:05:38;;;;;;;5.70;4.90;;;2.20;95.80;;;0.39;100.00;99953.97;5025424;27;100260;-62
2021/01/12 00:08:07;;;;;;;8.17;5.87;;;2.20;95.90;;;0.42;100.00;99931.84;5031223;27;100194;-63
2021/01/12 00:10:35;;;;;;;8.50;6.17;;;2.40;96.00;;;0.45;100.00;99935.13;5029944;27;100723;-62
2021/01/12 00:13:02;;;;;;;9.13;5.93;;;2.30;96.00;;;0.44;100.00;99928.19;5025181;27;100323;-62
2021/01/12 00:15:29;;;;;;;7.83;5.53;;;2.60;96.20;;;0.41;100.00;99923.13;5024380;27;100225;-62
2021/01/12 00:17:55;;;;;;;6.03;5.03;;;2.40;96.20;;;0.40;100.00;99910.91;5024968;27;100624;-62
2021/01/12 00:20:21;;;;;;;6.90;5.63;;;2.20;96.40;;;0.41;100.00;99911.75;5024966;27;100846;-62
2021/01/12 00:22:48;;;;;;;6.67;4.87;;;2.40;96.50;;;0.42;100.00;99908.16;5024745;27;100093;-62
2021/01/12 00:25:15;;;;;;;8.87;5.90;;;2.20;96.60;;;0.41;100.00;99909.13;5024110;27;100106;-62
2021/01/12 00:27:42;;;;;;;7.60;5.33;;;2.40;96.90;;;0.47;100.00;99890.28;5024634;27;100905;-63
2021/01/12 00:30:10;;;;;;;9.80;6.37;;;2.30;97.00;;;0.46;100.00;99899.97;5024672;27;100355;-62
2021/01/12 00:32:36;;;;;;;7.87;5.67;;;2.20;96.90;;;0.45;100.00;99900.91;5025791;27;100387;-63
2021/01/12 00:35:12;;;;;;;6.67;5.67;;;2.40;97.30;;;0.50;100.00;99893.53;5023683;27;100096;-62
2021/01/12 00:37:39;;;;;;;9.07;6.17;;;2.30;97.40;;;0.47;100.00;99883.25;5024784;27;101159;-62
2021/01/12 00:40:07;;;;;;;8.87;5.80;;;2.30;97.80;;;0.54;100.00;99887.13;5024488;27;100555;-62
2021/01/12 00:42:34;;;;;;;8.27;6.20;;;2.40;97.70;;;0.53;100.00;99881.97;5024845;27;100250;-62
2021/01/12 00:45:01;;;;;;;7.63;5.57;;;2.40;98.00;;;0.59;100.00;99876.28;5025134;27;100226;-62
2021/01/12 00:47:28;;;;;;;8.70;6.37;;;2.70;98.20;;;0.57;100.00;99865.88;5024538;27;100858;-62
2021/01/12 00:49:54;;;;;;;8.03;6.73;;;2.40;98.50;;;0.61;100.00;99871.78;5024489;27;99908;-62
2021/01/12 00:52:20;;;;;;;8.13;5.57;;;2.40;98.60;;;0.64;100.00;99876.81;5024099;27;100313;-61
2021/01/12 00:54:47;;;;;;;10.77;7.33;;;2.50;98.80;;;0.63;100.00;99868.06;5025451;27;100327;-62
2021/01/12 00:57:13;;;;;;;8.53;6.27;;;2.50;99.00;;;0.69;100.00;99866.81;5028388;27;100604;-62
2021/01/12 00:59:45;;;;;;;9.63;6.93;;;2.40;99.20;;;0.68;100.00;99855.44;5027713;27;100656;-62
2021/01/12 01:02:12;;;;;;;8.60;6.73;;;2.40;99.40;;;0.68;100.00;99849.31;5028411;27;100178;-62
2021/01/12 01:04:38;;;;;;;8.30;6.13;;;2.50;99.80;;;0.74;100.00;99848.91;5028457;27;100221;-62
2021/01/12 01:07:05;;;;;;;9.63;6.60;;;2.70;99.90;;;0.75;100.00;99837.41;5027150;27;100996;-62
2021/01/12 01:09:31;;;;;;;8.30;5.13;;;2.50;99.90;;;0.78;100.00;99821.38;5027967;27;100929;-62
2021/01/12 01:12:01;;;;;;;13.23;7.53;;;3.00;99.90;;;0.80;100.00;99834.47;5029611;27;100050;-62
2021/01/12 01:14:27;;;;;;;10.17;6.73;;;2.60;99.90;;;0.80;100.00;99826.56;5031152;27;100505;-62
2021/01/12 01:16:54;;;;;;;7.63;5.50;;;2.60;99.90;;;0.82;100.00;99825.50;5028051;27;100775;-62
2021/01/12 01:19:21;;;;;;;9.80;6.33;;;2.80;99.90;;;0.81;100.00;99812.44;5027111;27;100678;-61
2021/01/12 01:21:48;;;;;;;8.13;6.67;;;2.70;99.90;;;0.80;100.00;99821.28;5027586;27;100162;-62
2021/01/12 01:24:14;;;;;;;8.60;6.40;;;2.60;99.90;;;0.79;100.00;99819.59;5027555;27;99872;-61
2021/01/12 01:26:41;;;;;;;7.57;5.90;;;2.60;99.90;;;0.83;100.00;99811.38;5026847;27;101734;-62
2021/01/12 01:29:07;;;;;;;7.33;4.80;;;2.50;99.90;;;0.83;100.00;99803.50;5027003;27;100503;-62
2021/01/12 01:31:38;;;;;;;10.13;6.50;;;2.70;99.90;;;0.81;100.00;99805.38;5026917;27;100115;-62
2021/01/12 01:34:05;;;;;;;7.97;5.77;;;2.60;99.90;;;0.83;100.00;99803.50;5027856;27;100087;-62
2021/01/12 01:36:31;;;;;;;6.50;4.57;;;2.60;99.90;;;0.86;100.00;99790.09;5026298;27;101723;-61
2021/01/12 01:38:58;;;;;;;9.53;6.90;;;1.90;99.90;;;0.90;100.00;99780.19;5026718;27;100121;-62
2021/01/12 01:41:24;;;;;;;8.20;6.10;;;2.70;99.90;;;0.92;100.00;99787.03;5026811;27;100075;-63
2021/01/12 01:43:51;;;;;;;9.40;5.87;;;2.80;99.90;;;0.91;100.00;99795.03;5027182;27;100288;-63
2021/01/12 01:46:17;;;;;;;9.50;6.67;;;2.70;99.90;;;0.95;100.00;99785.97;5026662;27;101734;-62
2021/01/12 01:48:47;;;;;;;10.43;5.27;;;2.80;99.90;;;1.03;100.00;99786.25;5026620;27;100704;-62
2021/01/12 01:51:15;;;;;;;6.97;4.33;;;2.90;99.90;;;1.01;100.00;99777.59;5026822;27;100357;-62
2021/01/12 01:53:46;;;;;;;10.67;6.70;;;2.90;99.90;;;1.05;100.00;99772.03;5027092;27;100010;-63
2021/01/12 01:56:13;;;;;;;8.73;5.63;;;2.80;99.90;;;1.01;100.00;99769.72;5007423;27;101508;-62
2021/01/12 01:58:40;;;;;;;9.87;6.63;;;2.80;99.90;;;0.99;100.00;99767.19;5026565;27;100459;-62
2021/01/12 02:01:07;;;;;;;9.87;5.93;;;2.80;99.90;;;1.11;100.00;99770.75;5026859;27;100083;-62
2021/01/12 02:03:45;;;;;;;10.30;6.57;;;2.80;99.90;;;1.16;100.00;99762.50;5026786;27;99998;-62
2021/01/12 02:06:18;;;;;;;9.43;6.67;;;2.80;99.90;;;1.13;100.00;99774.09;5025546;27;100720;-62
2021/01/12 02:08:57;;;;;;;7.90;6.17;;;2.90;99.90;;;1.14;100.00;99759.13;5027073;27;100447;-62
2021/01/12 02:11:26;;;;;;;10.90;7.27;;;4.00;99.90;;;1.11;100.00;99751.47;5026611;27;100340;-62
2021/01/12 02:13:59;;;;;;;9.03;6.60;;;2.90;99.90;;;1.14;100.00;99741.53;5027414;27;99840;-61
2021/01/12 02:16:29;;;;;;;11.13;6.17;;;3.00;99.90;;;1.21;100.00;99736.66;5026492;27;100155;-61
2021/01/12 02:18:57;;;;;;;9.30;7.30;;;2.90;99.90;;;1.17;100.00;99743.09;5026986;27;100961;-62
2021/01/12 02:21:26;;;;;;;10.13;7.27;;;3.00;99.90;;;1.17;100.00;99735.19;5026643;27;100217;-63
2021/01/12 02:23:57;;;;;;;11.90;7.93;;;3.40;99.90;;;1.18;100.00;99724.53;5027615;27;100143;-62
2021/01/12 02:26:25;;;;;;;11.03;7.07;;;2.90;99.90;;;1.21;100.00;99729.59;5026165;27;101200;-62
2021/01/12 02:28:52;;;;;;;9.23;6.30;;;3.00;99.90;;;1.21;100.00;99726.13;5026448;27;101262;-61
2021/01/12 02:31:19;;;;;;;11.70;7.13;;;2.90;99.90;;;1.22;100.00;99718.09;5025939;27;100173;-63
2021/01/12 02:33:48;;;;;;;9.13;6.37;;;3.00;99.90;;;1.23;100.00;99718.94;5027411;27;99984;-60
2021/01/12 02:36:21;;;;;;;8.37;5.20;;;3.00;99.90;;;1.25;100.00;99715.22;5026406;27;101302;-62
2021/01/12 02:38:47;;;;;;;10.37;8.13;;;3.00;99.90;;;1.28;100.00;99695.72;5026192;27;100823;-62
2021/01/12 02:41:17;;;;;;;9.97;6.40;;;3.00;99.90;;;1.27;100.00;99694.03;5026015;27;100234;-62
2021/01/12 02:43:44;;;;;;;11.37;7.43;;;3.20;99.90;;;1.31;100.00;99691.06;5026164;27;99910;-62
2021/01/12 02:46:12;;;;;;;10.03;7.03;;;3.10;99.90;;;1.29;100.00;99679.78;5025487;27;101392;-62
2021/01/12 02:48:39;;;;;;;11.67;6.63;;;3.10;99.90;;;1.32;100.00;99674.28;5025927;27;100693;-63
2021/01/12 02:51:06;;;;;;;10.60;8.03;;;3.10;99.90;;;1.30;100.00;99676.19;5025746;27;100195;-62
2021/01/12 02:53:32;;;;;;;10.60;7.03;;;3.00;99.90;;;1.35;100.00;99667.97;5026243;27;100157;-62
2021/01/12 02:55:59;;;;;;;8.87;7.10;;;3.10;99.90;;;1.36;100.00;99667.00;5024879;27;100806;-62
2021/01/12 02:58:29;;;;;;;10.40;7.67;;;3.20;99.90;;;1.37;100.00;99656.31;5025560;27;100559;-62
2021/01/12 03:00:55;;;;;;;13.20;7.40;;;3.10;99.90;;;1.37;100.00;99653.69;5025470;27;100128;-62
2021/01/12 03:03:21;;;;;;;11.73;8.20;;;3.20;99.90;;;1.39;100.00;99650.94;5025987;27;100306;-61
2021/01/12 03:05:48;;;;;;;11.27;7.33;;;3.20;99.90;;;1.40;100.00;99642.91;5025225;27;100837;-63
2021/01/12 03:08:14;;;;;;;12.13;8.37;;;3.20;99.90;;;1.37;100.00;99643.13;5025613;27;100506;-62
2021/01/12 03:10:41;;;;;;;8.20;6.03;;;3.30;99.90;;;1.40;100.00;99624.47;5025648;27;100304;-62
2021/01/12 03:13:08;;;;;;;13.37;8.97;;;3.30;99.90;;;1.41;100.00;99634.06;5025699;27;100207;-62
2021/01/12 03:15:37;;;;;;;11.37;7.97;;;3.30;99.90;;;1.42;100.00;99633.09;5024906;27;100926;-61
2021/01/12 03:18:04;;;;;;;9.00;6.93;;;3.30;99.90;;;1.48;100.00;99613.34;5024377;27;100810;-61
2021/01/12 03:20:30;;;;;;;12.43;7.37;;;3.30;99.90;;;1.46;100.00;99611.78;5025378;27;100085;-61
2021/01/12 03:22:57;;;;;;;12.60;8.07;;;3.30;99.90;;;1.43;100.00;99605.78;5026453;27;100101;-62
2021/01/12 03:25:23;;;;;;;9.80;7.00;;;3.20;99.90;;;1.48;100.00;99612.53;5026440;27;101553;-62
2021/01/12 03:27:50;;;;;;;10.60;7.93;;;3.30;99.90;;;1.42;100.00;99603.25;5025259;27;101141;-62
2021/01/12 03:30:18;;;;;;;9.20;5.90;;;3.20;99.90;;;1.47;100.00;99582.69;5025082;27;100144;-61
2021/01/12 03:32:45;;;;;;;12.23;8.50;;;3.30;99.90;;;1.40;100.00;99587.56;5025890;27;100050;-62
2021/01/12 03:35:13;;;;;;;8.40;5.50;;;3.20;99.90;;;1.41;100.00;99583.97;5024866;27;100680;-62
2021/01/12 03:37:39;;;;;;;9.67;6.40;;;3.40;99.90;;;1.39;100.00;99585.88;5025806;27;101145;-62
2021/01/12 03:40:08;;;;;;;11.17;7.50;;;3.30;99.90;;;1.40;100.00;99592.00;5024535;27;100413;-60
2021/01/12 03:42:34;;;;;;;8.77;5.90;;;3.20;99.90;;;1.39;100.00;99577.13;5025679;27;99861;-60
2021/01/12 03:45:01;;;;;;;9.17;6.90;;;3.40;99.90;;;1.35;100.00;99589.72;5025287;27;100600;-61
2021/01/12 03:47:28;;;;;;;10.07;7.33;;;3.30;99.90;;;1.29;100.00;99592.81;5024760;27;100604;-61
2021/01/12 03:49:55;;;;;;;11.77;8.70;;;3.20;99.90;;;1.17;100.00;99590.25;5025368;27;100146;-63
2021/01/12 03:52:21;;;;;;;11.67;7.63;;;3.10;99.90;;;1.02;100.00;99593.09;5025440;27;99945;-62
2021/01/12 03:54:48;;;;;;;9.70;7.50;;;3.10;99.90;;;0.89;100.00;99581.78;5025134;27;100728;-62
2021/01/12 03:57:23;;;;;;;12.23;9.33;;;3.00;99.90;;;0.77;100.00;99585.31;5025430;27;100439;-61
2021/01/12 03:59:50;;;;;;;13.87;9.17;;;2.80;99.90;;;0.67;100.00;99590.44;5024920;27;100264;-59
2021/01/12 04:02:16;;;;;;;14.27;8.70;;;2.30;99.90;;;0.44;100.00;99588.66;5026103;27;100157;-60
2021/01/12 04:04:43;;;;;;;16.00;9.77;;;2.50;99.90;;;0.36;100.00;99583.13;5026095;27;100802;-61
2021/01/12 04:07:11;;;;;;;13.90;10.17;;;2.30;99.90;;;0.13;100.00;99570.75;5025083;27;100630;-61
2021/01/12 04:09:39;;;;;;;17.83;11.10;;;2.40;99.90;;;0.04;100.00;99571.41;5024699;27;99959;-62
2021/01/12 04:12:06;;;;;;;14.93;10.77;;;2.10;99.90;;;-0.08;100.00;99581.00;5025296;27;100233;-60
2021/01/12 04:14:33;;;;;;;16.07;10.57;;;2.00;99.90;;;-0.13;100.00;99578.72;5005693;27;103792;-62
2021/01/12 04:16:59;;;;;;;16.37;11.43;;;1.80;99.90;;;-0.25;100.00;99581.38;5024808;27;100841;-61
2021/01/12 04:19:25;;;;;;;15.97;11.60;;;1.70;99.90;;;-0.25;100.00;99573.47;5025018;27;100310;-61
2021/01/12 04:21:52;;;;;;;16.63;11.40;;;1.80;99.90;;;-0.24;100.00;99569.88;5025484;27;100129;-61
2021/01/12 04:24:19;;;;;;;13.20;8.83;;;1.60;99.90;;;-0.34;100.00;99567.06;5016462;27;101666;-63
2021/01/12 04:26:45;;;;;;;18.70;13.23;;;1.40;99.90;;;-0.30;100.00;99558.00;5008460;27;100694;-61
2021/01/12 04:29:12;;;;;;;17.77;12.37;;;1.40;99.90;;;-0.36;100.00;99555.78;5024463;27;100081;-61
2021/01/12 04:31:38;;;;;;;21.17;13.57;;;1.40;99.90;;;-0.38;100.00;99555.94;5028160;27;100291;-61
2021/01/12 04:34:05;;;;;;;20.40;14.27;;;1.40;99.90;;;-0.40;100.00;99551.72;5027237;27;100973;-61
2021/01/12 04:36:31;;;;;;;19.47;12.07;;;1.40;99.90;;;-0.45;100.00;99553.81;5027748;27;101329;-62
2021/01/12 04:38:57;;;;;;;23.60;13.10;;;1.30;99.90;;;-0.50;100.00;99550.69;5027707;27;99998;-60
2021/01/12 04:41:26;;;;;;;21.23;13.53;;;1.20;99.90;;;-0.47;100.00;99542.56;5028001;27;100308;-61
2021/01/12 04:43:53;;;;;;;19.57;11.50;;;1.20;99.90;;;-0.48;100.00;99541.72;5028350;27;101061;-62
2021/01/12 04:46:19;;;;;;;202.03;27.93;;;1.30;99.90;;;-0.44;100.00;99550.25;5027597;27;101327;-62
2021/01/12 04:48:48;;;;;;;68.57;15.90;;;1.20;99.90;;;-0.47;100.00;99539.94;5028348;27;100250;-62
2021/01/12 04:51:16;;;;;;;20.57;14.13;;;1.00;99.90;;;-0.57;100.00;99539.75;5028879;27;100122;-62
2021/01/12 04:53:46;;;;;;;21.70;14.03;;;1.10;99.90;;;-0.60;100.00;99534.69;5028275;27;100019;-61
2021/01/12 04:56:14;;;;;;;22.10;14.90;;;1.00;99.90;;;-0.66;100.00;99522.00;5027939;27;100288;-62
2021/01/12 04:58:43;;;;;;;95.20;18.53;;;1.00;99.90;;;-0.60;100.00;99528.59;5027723;27;100275;-61
2021/01/12 05:01:13;;;;;;;114.07;22.50;;;1.10;99.90;;;-0.64;100.00;99511.38;5026821;27;100339;-62
2021/01/12 05:03:43;;;;;;;20.17;12.73;;;1.00;99.90;;;-0.67;100.00;99514.22;5027812;27;100538;-63
2021/01/12 05:06:11;;;;;;;19.90;13.07;;;-0.20;99.90;;;-0.62;100.00;99493.72;5025835;27;100419;-62
2021/01/12 05:08:42;;;;;;;24.10;15.03;;;1.10;99.90;;;-0.66;100.00;99508.84;5027069;27;100387;-63
2021/01/12 05:11:09;;;;;;;19.77;12.50;;;1.10;99.90;;;-0.66;100.00;99495.72;5025482;27;100121;-64
2021/01/12 05:13:38;;;;;;;208.07;33.33;;;1.00;99.90;;;-0.56;100.00;99490.66;5027647;27;101409;-63
2021/01/12 05:16:10;;;;;;;396.50;45.93;;;1.00;99.90;;;-0.56;100.00;99493.28;5027858;27;100970;-64
2021/01/12 05:18:39;;;;;;;21.40;15.57;;;1.10;99.90;;;-0.66;100.00;99487.84;5027734;27;100121;-64
2021/01/12 05:21:10;;;;;;;21.33;13.33;;;1.10;99.90;;;-0.61;100.00;99480.47;5027310;27;100350;-64
2021/01/12 05:23:50;;;;;;;21.27;13.47;;;1.00;99.90;;;-0.64;100.00;99479.84;5026727;27;101495;-65
2021/01/12 05:26:18;;;;;;;129.10;22.37;;;1.00;99.90;;;-0.55;100.00;99487.09;5027007;27;100459;-65
2021/01/12 05:28:46;;;;;;;284.33;34.13;;;0.90;99.90;;;-0.55;100.00;99477.41;5027111;27;100019;-64
2021/01/12 05:31:15;;;;;;;24.80;13.87;;;0.90;99.90;;;-0.54;100.00;99483.50;5027055;27;99959;-64
2021/01/12 05:33:44;;;;;;;19.00;12.93;;;0.90;99.90;;;-0.64;100.00;99467.56;5026829;27;100911;-65
2021/01/12 05:36:11;;;;;;;25.03;15.73;;;1.00;99.90;;;-0.66;100.00;99472.06;5027033;27;100587;-64
2021/01/12 05:38:37;;;;;;;17.07;10.80;;;1.00;99.90;;;-0.61;100.00;99469.94;5027255;27;100098;-65
2021/01/12 05:41:06;;;;;;;43.97;15.63;;;1.10;99.90;;;-0.59;100.00;99465.44;5026881;27;99978;-64
2021/01/12 05:43:38;;;;;;;69.73;17.00;;;1.00;99.90;;;-0.47;100.00;99453.22;5027392;27;100882;-65
2021/01/12 05:46:07;;;;;;;20.10;12.73;;;0.90;99.90;;;-0.49;100.00;99448.06;5026360;27;101161;-65
2021/01/12 05:48:38;;;;;;;21.77;12.43;;;1.00;99.90;;;-0.55;100.00;99447.69;5026403;27;100525;-64
2021/01/12 05:51:08;;;;;;;19.60;13.03;;;1.00;99.90;;;-0.57;100.00;99446.94;5027698;27;100406;-65
2021/01/12 05:54:04;;;;;;;19.80;12.37;;;1.00;99.90;;;-0.59;100.00;99433.91;5007572;27;103036;-66
2021/01/12 05:56:32;;;;;;;120.37;20.67;;;1.00;99.90;;;-0.50;100.00;99435.91;5027003;27;100262;-65
2021/01/12 05:59:00;;;;;;;58.47;16.13;;;0.50;99.90;;;-0.43;100.00;99445.00;5026853;27;100113;-66
2021/01/12 06:01:47;;;;;;;15.33;9.63;;;1.00;99.90;;;-0.54;100.00;99429.19;5027466;27;100413;-65
2021/01/12 06:04:15;;;;;;;19.53;13.10;;;1.00;99.90;;;-0.56;100.00;99428.44;5026497;27;100359;-64
2021/01/12 06:06:43;;;;;;;26.57;14.37;;;1.00;99.90;;;-0.56;100.00;99423.19;5027703;27;100637;-66
2021/01/12 06:09:11;;;;;;;39.57;16.23;;;1.00;99.90;;;-0.56;100.00;99417.94;5026591;27;99931;-66
2021/01/12 06:11:39;;;;;;;88.50;17.50;;;1.00;99.90;;;-0.39;100.00;99416.72;5026884;27;100311;-65
2021/01/12 06:14:11;;;;;;;22.03;14.87;;;1.10;99.90;;;-0.40;100.00;99415.06;5026833;27;101813;-65
2021/01/12 06:16:40;;;;;;;21.17;14.70;;;1.10;99.90;;;-0.45;100.00;99419.78;5026739;27;100686;-67
2021/01/12 06:19:10;;;;;;;20.63;12.77;;;1.10;99.90;;;-0.46;100.00;99404.97;5026736;27;100164;-66
2021/01/12 06:22:04;;;;;;;24.60;14.57;;;1.10;99.90;;;-0.48;100.00;99396.34;5026534;27;100000;-67
2021/01/12 06:24:44;;;;;;;49.93;16.83;;;1.20;99.90;;;-0.40;100.00;99399.28;5023945;27;101696;-68
2021/01/12 06:27:13;;;;;;;24.40;13.90;;;0.90;99.90;;;-0.39;100.00;99395.72;5026498;27;101548;-69
2021/01/12 06:29:40;;;;;;;21.57;13.73;;;1.10;99.90;;;-0.45;100.00;99390.88;5026908;27;99898;-67
2021/01/12 06:32:07;;;;;;;18.70;11.83;;;1.10;99.90;;;-0.48;100.00;99399.81;5027476;27;100311;-68
2021/01/12 06:34:34;;;;;;;21.67;14.77;;;1.10;99.90;;;-0.48;100.00;99381.41;5026305;27;100724;-67
2021/01/12 06:37:05;;;;;;;20.93;13.87;;;1.10;99.90;;;-0.48;100.00;99393.72;5026407;27;100553;-68
2021/01/12 06:39:40;;;;;;;28.93;15.00;;;1.20;99.90;;;-0.46;100.00;99384.78;5025442;27;100104;-67
2021/01/12 06:42:08;;;;;;;176.13;26.80;;;1.00;99.90;;;-0.38;100.00;99379.84;5026621;27;100380;-69
2021/01/12 06:44:36;;;;;;;23.07;14.27;;;1.00;99.90;;;-0.44;100.00;99379.41;5026295;27;100959;-67
2021/01/12 06:47:04;;;;;;;16.33;9.77;;;1.20;99.90;;;-0.47;100.00;99372.59;5025882;27;102122;-67
2021/01/12 06:49:31;;;;;;;18.43;13.73;;;1.10;99.90;;;-0.53;100.00;99369.56;5026232;27;100372;-68
2021/01/12 06:52:02;;;;;;;21.20;13.50;;;1.00;99.90;;;-0.50;100.00;99367.59;5026259;27;100140;-67
2021/01/12 06:54:36;;;;;;;21.50;13.40;;;1.00;99.90;;;-0.51;100.00;99375.56;5025828;27;101130;-68
2021/01/12 06:57:05;;;;;;;189.07;30.93;;;1.00;99.90;;;-0.44;100.00;99361.88;5025517;27;100451;-69
2021/01/12 06:59:41;;;;;;;99.73;19.40;;;1.00;99.90;;;-0.39;100.00;99362.38;5025929;27;99977;-70
2021/01/12 07:02:09;;;;;;;19.27;13.77;;;1.10;99.90;;;-0.50;100.00;99356.22;5026158;27;100130;-68
2021/01/12 07:04:36;;;;;;;21.07;14.23;;;1.00;99.90;;;-0.49;100.00;99350.84;5024462;27;101039;-70
2021/01/12 07:07:03;;;;;;;18.17;12.03;;;1.10;99.90;;;-0.51;100.00;99346.66;5025611;27;100548;-70
2021/01/12 07:09:30;;;;;;;18.23;11.77;;;1.00;99.90;;;-0.49;100.00;99342.94;5026436;27;100150;-70
2021/01/12 07:12:07;;;;;;;71.77;18.10;;;1.10;99.90;;;-0.45;100.00;99339.16;5025837;27;100490;-70
2021/01/12 07:14:45;;;;;;;65.23;15.67;;;1.40;99.90;;;-0.38;100.00;99340.41;5025575;27;100801;-70
2021/01/12 07:17:12;;;;;;;17.70;11.00;;;1.10;99.90;;;-0.41;100.00;99337.16;5025680;27;100715;-70
2021/01/12 07:19:38;;;;;;;21.73;12.00;;;1.00;99.90;;;-0.42;100.00;99338.09;5025686;27;100322;-70
2021/01/12 07:22:11;;;;;;;12.57;9.30;;;1.00;99.90;;;-0.38;100.00;99347.44;5025974;27;99975;-70
2021/01/12 07:24:41;;;;;;;13.93;10.30;;;1.00;99.90;;;-0.40;100.00;99336.22;5024797;27;101648;-71
2021/01/12 07:27:12;;;;;;;129.33;20.70;;;1.10;99.90;;;-0.41;100.00;99335.38;5024978;27;100487;-72
2021/01/12 07:29:48;;;;;;;17.03;10.97;;;1.10;99.90;;;-0.38;100.00;99343.03;5024756;27;100096;-70
2021/01/12 07:32:32;;;;;;;12.57;8.73;;;1.20;99.90;;;-0.37;100.00;99335.97;5025992;27;100004;-71
2021/01/12 07:35:04;;;;;;;12.20;7.90;;;1.10;99.90;;;-0.37;100.00;99331.53;5026688;27;102141;-71
2021/01/12 07:37:40;;;;;;;17.67;10.40;;;1.00;99.90;;;-0.40;100.00;99328.31;5045437;27;100105;-70
2021/01/12 07:40:09;;;;;;;15.73;11.13;;;1.10;99.90;;;-0.45;100.00;99331.28;5044255;27;100332;-71
2021/01/12 07:42:46;;;;;;;91.73;17.37;;;1.10;99.90;;;-0.36;100.00;99332.38;5027302;27;99984;-71
2021/01/12 07:45:15;;;;;;;72.47;14.87;;;1.10;99.90;;;-0.38;100.00;99321.16;5025783;27;100916;-71
2021/01/12 07:47:42;;;;;;;15.43;10.73;;;1.10;99.90;;;-0.44;100.00;99317.19;5026411;27;100779;-70
2021/01/12 07:50:09;;;;;;;13.43;8.97;;;1.10;99.90;;;-0.46;100.00;99321.72;5025755;27;100139;-69
2021/01/12 07:52:36;;;;;;;15.00;9.27;;;1.00;99.90;;;-0.47;100.00;99321.81;5026434;27;99921;-70
2021/01/12 07:55:04;;;;;;;273.07;36.23;;;1.00;99.90;;;-0.47;100.00;99321.81;5024582;27;101535;-70
2021/01/12 07:57:31;;;;;;;23.30;11.73;;;1.00;99.90;;;-0.43;100.00;99318.88;5025683;27;100452;-72
2021/01/12 07:59:58;;;;;;;14.50;10.60;;;1.10;99.90;;;-0.51;100.00;99305.47;5022821;27;100282;-72
2021/01/12 08:02:26;;;;;;;11.57;8.50;;;1.00;99.90;;;-0.41;100.00;99303.00;5025137;27;100063;-72
2021/01/12 08:04:53;;;;;;;12.97;9.27;;;1.10;99.90;;;-0.43;100.00;99310.13;5023952;27;101439;-70
2021/01/12 08:07:24;;;;;;;452.37;54.77;;;0.80;99.90;;;-0.32;100.00;99307.56;5023995;27;100751;-70
2021/01/12 08:09:56;;;;;;;196.57;24.47;;;2.10;99.90;;;-0.37;100.00;99307.03;5024192;27;100030;-71
2021/01/12 08:12:24;;;;;;;14.37;9.40;;;1.10;99.90;;;-0.46;100.00;99310.34;5024261;27;100105;-72
2021/01/12 08:14:51;;;;;;;13.77;9.90;;;0.40;99.90;;;-0.51;100.00;99305.47;5023645;27;101874;-70
2021/01/12 08:17:24;;;;;;;12.93;9.70;;;1.10;99.90;;;-0.50;100.00;99295.78;5024304;27;100465;-71
2021/01/12 08:19:51;;;;;;;72.20;13.93;;;1.00;99.90;;;-0.49;100.00;99297.44;5003424;27;100109;-71
2021/01/12 08:22:17;;;;;;;130.67;20.63;;;1.00;99.90;;;-0.45;100.00;99299.75;5019606;27;100199;-73
2021/01/12 08:24:46;;;;;;;9.07;6.67;;;1.20;99.90;;;-0.42;100.00;99291.63;5023692;27;100854;-74
2021/01/12 08:27:17;;;;;;;12.10;8.27;;;1.00;99.90;;;-0.43;100.00;99281.22;5004465;27;101761;-73
2021/01/12 08:29:44;;;;;;;11.47;8.37;;;1.00;99.90;;;-0.50;100.00;99280.03;5012666;27;100108;-73
2021/01/12 08:32:12;;;;;;;11.97;8.83;;;1.00;99.90;;;-0.50;100.00;99286.13;5020873;27;101297;-75
2021/01/12 08:34:55;;;;;;;95.60;15.70;;;1.00;99.90;;;-0.46;100.00;99284.91;5008058;27;101536;-73
2021/01/12 08:37:22;;;;;;;184.80;21.93;;;1.00;99.90;;;-0.34;100.00;99290.22;5024636;27;100852;-73
2021/01/12 08:39:51;;;;;;;10.80;6.30;;;1.10;99.90;;;-0.37;100.00;99281.59;5022373;27;100578;-73
2021/01/12 08:42:20;;;;;;;10.67;7.33;;;2.20;99.90;;;-0.47;100.00;99280.59;5024891;27;100297;-77
2021/01/12 08:44:47;;;;;;;9.17;6.80;;;1.10;99.90;;;-0.47;100.00;99277.16;5023351;27;101533;-76
2021/01/12 08:47:14;;;;;;;11.23;6.50;;;1.00;99.90;;;-0.46;100.00;99276.19;5023767;27;100652;-77
2021/01/12 08:49:41;;;;;;;49.77;11.30;;;1.10;99.90;;;-0.42;100.00;99278.50;5021556;27;100265;-79
2021/01/12 08:52:07;;;;;;;119.57;17.70;;;1.50;99.90;;;-0.34;100.00;99275.28;5004222;27;100246;-78
2021/01/12 08:54:35;;;;;;;12.40;7.43;;;1.20;99.90;;;-0.44;100.00;99275.13;5023671;27;100404;-81
2021/01/12 08:57:04;;;;;;;7.77;5.80;;;1.10;99.90;;;-0.47;100.00;99274.50;5003486;27;103071;-77
2021/01/12 08:59:32;;;;;;;10.07;7.33;;;1.10;99.90;;;-0.53;100.00;99273.19;5023251;27;100191;-77
2021/01/12 09:02:00;;;;;;;87.50;12.97;;;1.00;99.90;;;-0.47;100.00;99269.25;5023868;27;100361;-78
2021/01/12 09:04:30;;;;;;;146.63;17.83;;;0.90;99.90;;;-0.41;100.00;99258.31;5024652;27;100915;-75
2021/01/12 09:07:06;;;;;;;8.87;5.40;;;1.20;99.90;;;-0.43;100.00;99257.59;5023745;27;100606;-76
2021/01/12 09:09:34;;;;;;;10.23;6.90;;;1.10;99.90;;;-0.53;100.00;99254.81;5004329;27;100474;-80
2021/01/12 09:12:02;;;;;;;10.43;6.70;;;1.00;99.90;;;-0.53;100.00;99251.34;5023506;27;100401;-79
2021/01/12 09:14:30;;;;;;;9.10;6.07;;;1.00;99.90;;;-0.52;100.00;99243.34;5004758;27;102367;-74
2021/01/12 09:17:02;;;;;;;454.67;56.47;;;1.00;99.90;;;-0.45;100.00;99241.09;5024652;27;100657;-73
2021/01/12 09:19:36;;;;;;;112.53;16.27;;;2.50;99.90;;;-0.41;100.00;99237.28;5027017;27;100040;-78
2021/01/12 09:22:15;;;;;;;8.30;5.73;;;1.00;99.90;;;-0.50;100.00;99236.19;5007508;27;100313;-77
2021/01/12 09:24:50;;;;;;;8.07;5.57;;;1.10;99.90;;;-0.46;100.00;99242.03;5026650;27;101576;-72
2021/01/12 09:27:22;;;;;;;10.27;7.33;;;1.10;99.90;;;-0.47;100.00;99232.47;5027760;27;100540;-71
2021/01/12 09:29:51;;;;;;;16.07;6.57;;;1.00;99.90;;;-0.47;100.00;99233.31;5027461;27;99968;-69
2021/01/12 09:32:29;;;;;;;55.07;11.77;;;1.00;99.90;;;-0.40;100.00;99233.72;5027589;27;100230;-73
2021/01/12 09:34:56;;;;;;;9.23;6.17;;;1.10;99.90;;;-0.46;100.00;99231.53;5026366;27;101427;-71
2021/01/12 09:37:23;;;;;;;9.13;5.97;;;1.00;99.90;;;-0.50;100.00;99223.06;5027520;27;100721;-71
2021/01/12 09:39:54;;;;;;;7.90;5.40;;;1.00;99.90;;;-0.53;100.00;99223.28;5027347;27;99977;-70
2021/01/12 09:42:24;;;;;;;8.57;4.53;;;1.00;99.90;;;-0.53;100.00;99228.53;5027112;27;100137;-70
2021/01/12 09:44:52;;;;;;;58.23;9.87;;;1.00;99.90;;;-0.48;100.00;99210.59;5026670;27;101373;-70
2021/01/12 09:47:19;;;;;;;112.50;13.00;;;1.00;99.90;;;-0.41;100.00;99213.63;5029800;27;101988;-75
2021/01/12 09:49:45;;;;;;;10.47;5.03;;;1.00;99.90;;;-0.38;100.00;99218.66;5027840;27;100078;-72
2021/01/12 09:52:12;;;;;;;5.97;4.80;;;0.80;99.90;;;-0.47;100.00;99214.06;5028073;27;100077;-73
2021/01/12 09:54:41;;;;;;;7.43;5.03;;;1.00;99.90;;;-0.49;100.00;99198.41;5007800;27;103236;-75
2021/01/12 09:57:09;;;;;;;5.77;4.80;;;1.00;99.90;;;-0.45;100.00;99201.66;5027327;27;100599;-75
2021/01/12 09:59:35;;;;;;;32.70;7.30;;;1.00;99.90;;;-0.40;100.00;99199.53;5026500;27;100662;-77
2021/01/12 10:02:02;;;;;;;6.57;4.50;;;2.90;99.90;;;-0.38;100.00;99195.84;5026242;27;100290;-73
2021/01/12 10:04:29;;;;;;;6.17;4.63;;;1.00;99.90;;;-0.33;100.00;99195.47;5026205;27;101194;-77
2021/01/12 10:06:56;;;;;;;7.63;4.80;;;1.20;99.90;;;-0.36;100.00;99187.81;5026356;27;101142;-77
2021/01/12 10:09:23;;;;;;;6.77;4.67;;;1.20;99.90;;;-0.33;100.00;99194.66;5027343;27;100086;-76
2021/01/12 10:11:50;;;;;;;5.50;4.30;;;1.10;99.90;;;-0.31;100.00;99183.06;5025936;27;100205;-80
2021/01/12 10:14:17;;;;;;;287.07;34.23;;;1.20;99.90;;;-0.18;100.00;99183.81;5026678;27;101315;-77